Time;durP1;ratioP1;P1;durP2;ratioP2;P2;SDS_P1;SDS_P2;PMS_P1;PMS_P2;Temp;Humidity;BMP_temperature;BMP_pressure;BME280_temperature;BME280_humidity;BME280_pressure;Samples;Min_cycle;Max_cycle;Signal;HPM_P1;HPM_P2
2023/08/14 00:00:55;;;;;;;4.70;1.70;;;;;;;;;;5042909;28;20195;-69
2023/08/14 00:03:22;;;;;;;3.20;1.98;;;;;;;;;;5043560;28;20209;-69
2023/08/14 00:05:49;;;;;;;3.25;1.80;;;;;;;;;;5043729;28;20218;-69
2023/08/14 00:08:16;;;;;;;4.70;2.05;;;;;;;;;;5045921;28;20218;-68
2023/08/14 00:10:43;;;;;;;4.63;2.00;;;;;;;;;;5045275;28;20203;-69
2023/08/14 00:13:10;;;;;;;4.28;1.83;;;;;;;;;;5047806;28;20223;-69
2023/08/14 00:15:39;;;;;;;2.78;1.85;;;;;;;;;;5041884;28;20653;-69
2023/08/14 00:18:06;;;;;;;3.10;1.80;;;;;;;;;;5042444;28;20207;-70
2023/08/14 00:20:34;;;;;;;2.00;1.80;;;;;;;;;;5042691;28;20212;-69
2023/08/14 00:23:01;;;;;;;5.18;2.03;;;;;;;;;;5045238;28;20206;-69
2023/08/14 00:25:28;;;;;;;3.53;1.60;;;;;;;;;;5044085;28;20195;-70
2023/08/14 00:27:55;;;;;;;3.22;1.90;;;;;;;;;;5044709;28;20199;-69
2023/08/14 00:30:23;;;;;;;2.30;1.63;;;;;;;;;;5041403;28;20201;-68
2023/08/14 00:32:51;;;;;;;6.90;2.20;;;;;;;;;;5043539;28;20196;-69
2023/08/14 00:35:18;;;;;;;3.83;1.70;;;;;;;;;;5043331;28;20230;-69
2023/08/14 00:37:46;;;;;;;5.88;2.00;;;;;;;;;;5043551;28;20204;-68
2023/08/14 00:40:14;;;;;;;4.05;1.85;;;;;;;;;;5039483;28;20212;-69
2023/08/14 00:42:43;;;;;;;4.25;1.92;;;;;;;;;;5042529;28;20200;-70
2023/08/14 00:45:14;;;;;;;4.53;1.80;;;;;;;;;;5040758;28;20200;-68
2023/08/14 00:47:41;;;;;;;4.18;1.88;;;;;;;;;;5043506;28;20203;-69
2023/08/14 00:50:10;;;;;;;7.13;2.00;;;;;;;;;;5044369;28;20195;-69
2023/08/14 00:52:39;;;;;;;3.47;1.83;;;;;;;;;;5042781;28;20587;-69
2023/08/14 00:55:08;;;;;;;3.65;1.73;;;;;;;;;;5042665;28;20227;-69
2023/08/14 00:57:36;;;;;;;4.65;1.90;;;;;;;;;;5041461;28;20231;-63
2023/08/14 01:00:08;;;;;;;5.00;1.90;;;;;;;;;;5042483;28;20243;-67
2023/08/14 01:02:36;;;;;;;4.82;1.60;;;;;;;;;;5042586;28;20276;-64
2023/08/14 01:05:03;;;;;;;3.55;1.80;;;;;;;;;;5043550;28;20214;-65
2023/08/14 01:07:32;;;;;;;2.97;1.83;;;;;;;;;;5043411;28;20214;-64
2023/08/14 01:09:59;;;;;;;2.47;1.60;;;;;;;;;;5044272;28;20214;-64
2023/08/14 01:12:32;;;;;;;3.22;1.65;;;;;;;;;;5046854;28;20261;-64
2023/08/14 01:15:01;;;;;;;3.90;1.63;;;;;;;;;;5049290;28;20223;-64
2023/08/14 01:17:31;;;;;;;4.50;1.60;;;;;;;;;;5046953;28;20203;-64
2023/08/14 01:19:59;;;;;;;4.22;1.80;;;;;;;;;;5049756;28;20206;-64
2023/08/14 01:22:41;;;;;;;4.93;1.90;;;;;;;;;;5052400;28;20208;-64
2023/08/14 01:25:27;;;;;;;4.93;1.90;;;;;;;;;;5048989;28;20207;-64
2023/08/14 01:27:55;;;;;;;2.15;1.35;;;;;;;;;;5049445;28;20207;-64
2023/08/14 01:30:23;;;;;;;5.20;2.30;;;;;;;;;;5047923;28;20226;-64
2023/08/14 01:32:50;;;;;;;3.15;1.92;;;;;;;;;;5051258;28;20203;-64
2023/08/14 01:35:18;;;;;;;4.68;1.90;;;;;;;;;;5048380;28;20231;-64
2023/08/14 01:37:48;;;;;;;3.35;1.63;;;;;;;;;;5049902;28;20210;-64
2023/08/14 01:40:19;;;;;;;3.08;1.85;;;;;;;;;;5050842;28;20326;-65
2023/08/14 01:42:49;;;;;;;3.92;1.83;;;;;;;;;;5050643;28;20200;-64
2023/08/14 01:45:20;;;;;;;3.75;1.60;;;;;;;;;;5049627;28;20199;-64
2023/08/14 01:47:48;;;;;;;3.42;1.50;;;;;;;;;;5051205;28;20203;-64
2023/08/14 01:50:16;;;;;;;3.95;1.85;;;;;;;;;;5048824;28;20209;-64
2023/08/14 01:52:43;;;;;;;3.05;1.80;;;;;;;;;;5050336;28;20229;-64
2023/08/14 01:55:11;;;;;;;3.58;2.10;;;;;;;;;;5048720;28;20221;-65
2023/08/14 01:57:38;;;;;;;2.85;1.70;;;;;;;;;;5052333;28;20211;-64
2023/08/14 02:00:09;;;;;;;3.78;1.88;;;;;;;;;;5048488;28;20239;-64
2023/08/14 02:02:37;;;;;;;3.83;1.60;;;;;;;;;;5051215;28;20258;-64
2023/08/14 02:05:04;;;;;;;4.53;1.60;;;;;;;;;;5050760;28;20216;-70
2023/08/14 02:07:31;;;;;;;2.90;1.90;;;;;;;;;;5050307;28;20203;-70
2023/08/14 02:09:58;;;;;;;5.78;1.67;;;;;;;;;;5050121;28;20203;-69
2023/08/14 02:12:25;;;;;;;4.25;1.90;;;;;;;;;;5050073;28;20207;-70
2023/08/14 02:14:53;;;;;;;4.97;1.52;;;;;;;;;;5049602;28;20221;-70
2023/08/14 02:17:21;;;;;;;3.22;1.83;;;;;;;;;;5048983;28;20203;-69
2023/08/14 02:19:49;;;;;;;2.53;1.67;;;;;;;;;;5051896;28;20211;-70
2023/08/14 02:22:16;;;;;;;3.63;1.50;;;;;;;;;;5046330;28;20207;-70
2023/08/14 02:24:43;;;;;;;2.83;1.88;;;;;;;;;;5046766;28;20208;-69
2023/08/14 02:27:10;;;;;;;3.50;1.70;;;;;;;;;;5043737;28;20204;-70
2023/08/14 02:29:37;;;;;;;3.15;1.73;;;;;;;;;;5042729;28;20207;-69
2023/08/14 02:32:05;;;;;;;3.63;1.88;;;;;;;;;;5041053;28;20196;-70
2023/08/14 02:34:34;;;;;;;3.33;1.70;;;;;;;;;;5046088;28;20295;-70
2023/08/14 02:37:01;;;;;;;3.78;2.05;;;;;;;;;;5055995;28;20225;-69
2023/08/14 02:39:29;;;;;;;3.30;1.70;;;;;;;;;;5059809;28;20290;-70
2023/08/14 02:41:56;;;;;;;4.40;2.13;;;;;;;;;;5051047;28;20200;-70
2023/08/14 02:44:23;;;;;;;5.50;1.95;;;;;;;;;;5053323;28;20203;-70
2023/08/14 02:46:50;;;;;;;5.55;2.03;;;;;;;;;;5051184;28;21579;-70
2023/08/14 02:49:17;;;;;;;2.28;1.80;;;;;;;;;;5051972;28;20199;-70
2023/08/14 02:51:46;;;;;;;7.45;2.08;;;;;;;;;;5054735;28;20205;-70
2023/08/14 02:54:13;;;;;;;3.05;1.67;;;;;;;;;;5055030;28;20204;-70
2023/08/14 02:56:40;;;;;;;2.67;1.65;;;;;;;;;;5050198;28;20462;-70
2023/08/14 02:59:07;;;;;;;3.40;1.92;;;;;;;;;;5048957;28;20240;-70
2023/08/14 03:01:35;;;;;;;3.53;1.77;;;;;;;;;;5050180;28;20203;-70
2023/08/14 03:04:02;;;;;;;6.75;2.17;;;;;;;;;;5055254;28;20209;-69
2023/08/14 03:06:31;;;;;;;5.70;1.73;;;;;;;;;;5054563;28;20215;-70
2023/08/14 03:08:59;;;;;;;5.15;2.03;;;;;;;;;;5052298;28;20207;-70
2023/08/14 03:11:27;;;;;;;3.25;1.83;;;;;;;;;;5052263;28;20204;-69
2023/08/14 03:13:54;;;;;;;5.47;2.03;;;;;;;;;;5048548;28;20208;-70
2023/08/14 03:16:21;;;;;;;5.07;1.90;;;;;;;;;;5048765;28;20225;-65
2023/08/14 03:18:48;;;;;;;3.90;2.05;;;;;;;;;;5050205;28;20204;-63
2023/08/14 03:21:16;;;;;;;5.20;1.70;;;;;;;;;;5053236;28;20272;-63
2023/08/14 03:23:43;;;;;;;7.28;2.38;;;;;;;;;;5050248;28;20438;-64
2023/08/14 03:26:14;;;;;;;5.28;1.70;;;;;;;;;;5055127;28;20230;-64
2023/08/14 03:28:41;;;;;;;3.60;2.00;;;;;;;;;;5053227;28;20226;-63
2023/08/14 03:31:08;;;;;;;4.18;1.90;;;;;;;;;;5052715;28;20203;-63
2023/08/14 03:33:35;;;;;;;5.47;2.20;;;;;;;;;;5050807;28;20208;-65
2023/08/14 03:36:02;;;;;;;3.85;2.10;;;;;;;;;;5051597;28;20215;-64
2023/08/14 03:38:30;;;;;;;4.45;1.90;;;;;;;;;;5054095;28;20210;-65
2023/08/14 03:40:58;;;;;;;3.15;1.83;;;;;;;;;;5056612;28;20211;-64
2023/08/14 03:43:26;;;;;;;3.65;2.03;;;;;;;;;;5052889;28;20204;-63
2023/08/14 03:45:53;;;;;;;5.10;2.17;;;;;;;;;;5050997;28;20233;-64
2023/08/14 03:48:21;;;;;;;5.85;2.00;;;;;;;;;;5050169;28;20210;-64
2023/08/14 03:50:48;;;;;;;4.97;2.28;;;;;;;;;;5053616;28;20214;-64
2023/08/14 03:53:15;;;;;;;4.65;1.90;;;;;;;;;;5055578;28;20204;-64
2023/08/14 03:55:42;;;;;;;5.07;2.20;;;;;;;;;;5054094;28;20215;-64
2023/08/14 03:58:10;;;;;;;4.78;1.92;;;;;;;;;;5054211;28;20217;-64
2023/08/14 04:00:38;;;;;;;4.68;1.70;;;;;;;;;;5055726;28;20203;-64
2023/08/14 04:03:05;;;;;;;5.93;2.03;;;;;;;;;;5052502;28;20218;-64
2023/08/14 04:05:33;;;;;;;4.57;2.42;;;;;;;;;;5050014;28;20218;-64
2023/08/14 04:08:00;;;;;;;3.95;2.00;;;;;;;;;;5055240;28;20204;-64
2023/08/14 04:10:27;;;;;;;5.68;2.10;;;;;;;;;;5052552;28;20203;-64
2023/08/14 04:12:54;;;;;;;5.65;1.90;;;;;;;;;;5054267;28;20227;-64
2023/08/14 04:15:22;;;;;;;6.30;2.10;;;;;;;;;;5054916;28;20202;-63
2023/08/14 04:17:51;;;;;;;3.30;1.90;;;;;;;;;;5051848;28;20697;-64
2023/08/14 04:20:18;;;;;;;2.85;1.80;;;;;;;;;;5047772;28;20204;-64
2023/08/14 04:22:45;;;;;;;5.28;2.08;;;;;;;;;;5051398;28;20206;-64
2023/08/14 04:25:12;;;;;;;4.55;2.30;;;;;;;;;;5054131;28;20284;-63
2023/08/14 04:27:40;;;;;;;4.00;1.73;;;;;;;;;;5052778;28;20212;-70
2023/08/14 04:30:08;;;;;;;2.28;1.92;;;;;;;;;;5053246;28;20238;-70
2023/08/14 04:32:35;;;;;;;2.70;1.70;;;;;;;;;;5047689;28;20230;-69
2023/08/14 04:35:04;;;;;;;3.40;1.60;;;;;;;;;;5049400;28;20200;-69
2023/08/14 04:37:31;;;;;;;5.53;2.15;;;;;;;;;;5052399;28;20238;-69
2023/08/14 04:39:58;;;;;;;2.65;1.80;;;;;;;;;;5050531;28;20302;-70
2023/08/14 04:42:26;;;;;;;3.50;1.77;;;;;;;;;;5055690;28;20211;-69
2023/08/14 04:44:53;;;;;;;2.95;1.95;;;;;;;;;;5050188;28;20199;-70
2023/08/14 04:47:20;;;;;;;3.80;1.98;;;;;;;;;;5048442;28;20213;-69
2023/08/14 04:49:47;;;;;;;3.42;1.90;;;;;;;;;;5053677;28;20212;-70
2023/08/14 04:52:16;;;;;;;4.53;1.95;;;;;;;;;;5057547;28;20207;-69
2023/08/14 04:54:43;;;;;;;7.88;2.20;;;;;;;;;;5057447;28;20336;-70
2023/08/14 04:57:10;;;;;;;4.45;2.30;;;;;;;;;;5053400;28;20235;-70
2023/08/14 04:59:37;;;;;;;3.78;1.90;;;;;;;;;;5053279;28;20281;-70
2023/08/14 05:02:04;;;;;;;3.55;1.95;;;;;;;;;;5045382;28;20203;-70
2023/08/14 05:04:32;;;;;;;3.25;1.80;;;;;;;;;;5057767;28;20261;-69
2023/08/14 05:06:59;;;;;;;3.42;1.88;;;;;;;;;;5052191;28;20195;-69
2023/08/14 05:09:27;;;;;;;5.00;1.90;;;;;;;;;;5050825;28;20199;-70
2023/08/14 05:11:54;;;;;;;3.53;1.55;;;;;;;;;;5047927;28;20203;-69
2023/08/14 05:14:22;;;;;;;5.53;2.00;;;;;;;;;;5057444;28;20210;-70
2023/08/14 05:16:49;;;;;;;3.47;1.90;;;;;;;;;;5047404;28;20223;-69
2023/08/14 05:19:16;;;;;;;3.45;1.90;;;;;;;;;;5051134;28;20214;-70
2023/08/14 05:21:45;;;;;;;5.00;1.88;;;;;;;;;;5050925;28;20209;-70
2023/08/14 05:24:12;;;;;;;3.25;2.13;;;;;;;;;;5059369;28;20203;-70
2023/08/14 05:26:40;;;;;;;4.95;1.90;;;;;;;;;;5051930;28;20192;-70
2023/08/14 05:29:07;;;;;;;4.97;1.90;;;;;;;;;;5052309;28;20206;-69
2023/08/14 05:31:35;;;;;;;4.65;1.80;;;;;;;;;;5052715;28;20211;-69
2023/08/14 05:34:02;;;;;;;2.80;1.90;;;;;;;;;;5056584;28;20195;-70
2023/08/14 05:36:29;;;;;;;3.15;1.77;;;;;;;;;;5046631;28;20237;-70
2023/08/14 05:38:56;;;;;;;2.28;1.60;;;;;;;;;;5049211;28;20210;-69
2023/08/14 05:41:23;;;;;;;5.05;2.10;;;;;;;;;;5055760;28;20200;-70
2023/08/14 05:43:52;;;;;;;3.72;2.10;;;;;;;;;;5052363;28;20210;-70
2023/08/14 05:46:23;;;;;;;3.60;1.83;;;;;;;;;;5053307;28;20213;-65
2023/08/14 05:48:50;;;;;;;5.10;2.13;;;;;;;;;;5057031;28;20210;-64
2023/08/14 05:51:18;;;;;;;5.57;2.03;;;;;;;;;;5045656;28;20214;-63
2023/08/14 05:53:45;;;;;;;4.40;2.20;;;;;;;;;;5047944;28;20199;-64
2023/08/14 05:56:12;;;;;;;4.03;1.85;;;;;;;;;;5045637;28;20300;-64
2023/08/14 05:58:39;;;;;;;4.95;1.90;;;;;;;;;;5028228;28;20243;-64
2023/08/14 06:01:08;;;;;;;5.45;2.10;;;;;;;;;;5017451;28;20216;-63
2023/08/14 06:03:38;;;;;;;6.15;2.13;;;;;;;;;;5005645;28;20213;-64
2023/08/14 06:06:05;;;;;;;4.95;1.85;;;;;;;;;;4999071;28;20422;-63
2023/08/14 06:08:32;;;;;;;4.75;1.85;;;;;;;;;;4996665;28;20209;-65
2023/08/14 06:10:59;;;;;;;3.70;1.92;;;;;;;;;;4999385;28;20209;-64
2023/08/14 06:13:27;;;;;;;3.50;1.98;;;;;;;;;;5001971;28;20201;-65
2023/08/14 06:15:54;;;;;;;3.38;1.80;;;;;;;;;;5001847;28;20213;-64
2023/08/14 06:18:23;;;;;;;3.03;1.90;;;;;;;;;;5009250;28;20252;-64
2023/08/14 06:20:51;;;;;;;5.35;2.10;;;;;;;;;;5021304;28;20251;-64
2023/08/14 06:23:18;;;;;;;4.82;1.90;;;;;;;;;;5004985;28;20205;-64
2023/08/14 06:25:46;;;;;;;2.65;1.90;;;;;;;;;;5003804;28;20244;-65
2023/08/14 06:28:13;;;;;;;5.28;1.92;;;;;;;;;;5003357;28;20235;-64
2023/08/14 06:30:40;;;;;;;4.15;1.90;;;;;;;;;;5001985;28;20319;-64
2023/08/14 06:33:07;;;;;;;4.22;2.25;;;;;;;;;;5002105;28;20292;-64
2023/08/14 06:35:36;;;;;;;4.60;1.90;;;;;;;;;;4998332;28;20237;-64
2023/08/14 06:38:03;;;;;;;7.38;2.40;;;;;;;;;;5010194;28;20224;-63
2023/08/14 06:40:31;;;;;;;3.72;2.17;;;;;;;;;;5003859;28;20205;-63
2023/08/14 06:42:58;;;;;;;6.70;2.20;;;;;;;;;;5008825;28;20205;-64
2023/08/14 06:45:25;;;;;;;5.05;2.05;;;;;;;;;;5007204;28;20205;-63
2023/08/14 06:47:52;;;;;;;4.72;2.03;;;;;;;;;;4999843;28;20201;-64
2023/08/14 06:50:19;;;;;;;4.25;2.15;;;;;;;;;;5000345;28;20204;-63
2023/08/14 06:52:48;;;;;;;4.10;1.90;;;;;;;;;;5004661;28;20207;-63
2023/08/14 06:55:16;;;;;;;4.28;2.40;;;;;;;;;;5005405;28;20215;-64
2023/08/14 06:57:43;;;;;;;5.40;2.10;;;;;;;;;;5001040;28;20229;-68
2023/08/14 07:00:12;;;;;;;2.75;2.15;;;;;;;;;;5001040;28;20599;-68
2023/08/14 07:02:40;;;;;;;5.32;1.88;;;;;;;;;;5001470;28;20235;-68
2023/08/14 07:05:08;;;;;;;3.83;2.10;;;;;;;;;;5000110;28;20205;-68
2023/08/14 07:07:35;;;;;;;4.45;1.92;;;;;;;;;;5003792;28;20193;-68
2023/08/14 07:10:04;;;;;;;4.95;2.03;;;;;;;;;;5003119;28;20276;-68
2023/08/14 07:12:31;;;;;;;4.50;2.50;;;;;;;;;;4996267;28;20206;-68
2023/08/14 07:15:00;;;;;;;11.50;2.17;;;;;;;;;;5009178;28;20205;-68
2023/08/14 07:17:27;;;;;;;4.43;2.08;;;;;;;;;;5005061;28;20228;-68
2023/08/14 07:19:54;;;;;;;4.30;2.40;;;;;;;;;;5011016;28;20206;-68
2023/08/14 07:22:23;;;;;;;4.40;2.03;;;;;;;;;;5000559;28;20220;-68
2023/08/14 07:24:50;;;;;;;3.70;2.05;;;;;;;;;;4999966;28;20236;-68
2023/08/14 07:27:18;;;;;;;4.20;2.17;;;;;;;;;;5006639;28;20212;-68
2023/08/14 07:29:45;;;;;;;4.85;2.25;;;;;;;;;;5009064;28;20196;-68
2023/08/14 07:32:13;;;;;;;4.03;2.20;;;;;;;;;;5001389;28;20207;-67
2023/08/14 07:34:40;;;;;;;6.28;2.42;;;;;;;;;;5007064;28;20202;-67
2023/08/14 07:37:07;;;;;;;2.78;1.90;;;;;;;;;;5000227;28;20224;-68
2023/08/14 07:39:34;;;;;;;4.32;1.95;;;;;;;;;;5010331;28;20211;-68
2023/08/14 07:42:01;;;;;;;3.83;2.00;;;;;;;;;;5011094;28;20295;-68
2023/08/14 07:44:30;;;;;;;3.58;1.98;;;;;;;;;;5001837;28;20205;-68
2023/08/14 07:46:57;;;;;;;3.67;2.15;;;;;;;;;;5011690;28;20238;-67
2023/08/14 07:49:24;;;;;;;4.18;2.40;;;;;;;;;;5008963;28;20284;-68
2023/08/14 07:51:52;;;;;;;7.30;2.60;;;;;;;;;;5004636;28;20220;-67
2023/08/14 07:54:19;;;;;;;3.97;1.95;;;;;;;;;;5007351;28;20215;-68
2023/08/14 07:56:46;;;;;;;4.47;2.40;;;;;;;;;;5006787;28;20225;-67
2023/08/14 07:59:13;;;;;;;3.00;2.17;;;;;;;;;;5005256;28;20236;-68
2023/08/14 08:01:42;;;;;;;4.43;2.03;;;;;;;;;;5003663;28;20197;-67
2023/08/14 08:04:10;;;;;;;5.05;2.30;;;;;;;;;;5008358;28;20231;-67
2023/08/14 08:06:37;;;;;;;4.65;2.10;;;;;;;;;;5005869;28;20205;-62
2023/08/14 08:09:04;;;;;;;4.55;2.10;;;;;;;;;;5000994;28;20252;-62
2023/08/14 08:11:32;;;;;;;3.88;2.03;;;;;;;;;;5010515;28;20201;-63
2023/08/14 08:14:05;;;;;;;4.35;1.90;;;;;;;;;;5010749;28;20209;-62
2023/08/14 08:16:34;;;;;;;5.50;2.10;;;;;;;;;;5001666;28;20209;-62
2023/08/14 08:19:03;;;;;;;4.78;1.90;;;;;;;;;;5000906;28;20217;-63
2023/08/14 08:21:30;;;;;;;6.82;2.00;;;;;;;;;;4999353;28;20204;-62
2023/08/14 08:23:58;;;;;;;5.75;2.22;;;;;;;;;;4998216;28;20209;-63
2023/08/14 08:26:25;;;;;;;4.55;1.85;;;;;;;;;;5006476;28;20227;-62
2023/08/14 08:28:52;;;;;;;4.93;2.20;;;;;;;;;;5000422;28;20211;-63
2023/08/14 08:31:19;;;;;;;3.95;2.08;;;;;;;;;;4998099;28;20201;-62
2023/08/14 08:33:46;;;;;;;4.55;1.95;;;;;;;;;;5007053;28;20225;-62
2023/08/14 08:36:17;;;;;;;5.97;1.80;;;;;;;;;;5003079;28;20205;-62
2023/08/14 08:38:44;;;;;;;4.75;1.90;;;;;;;;;;5005606;28;20209;-62
2023/08/14 08:41:13;;;;;;;5.82;2.15;;;;;;;;;;5007336;28;20212;-62
2023/08/14 08:43:41;;;;;;;4.10;2.10;;;;;;;;;;5002212;28;20201;-63
2023/08/14 08:46:09;;;;;;;4.78;2.22;;;;;;;;;;5002177;28;20207;-62
2023/08/14 08:48:38;;;;;;;3.10;2.03;;;;;;;;;;5001448;28;20263;-63
2023/08/14 08:51:06;;;;;;;3.40;2.03;;;;;;;;;;5000615;28;20216;-62
2023/08/14 08:53:35;;;;;;;4.18;2.05;;;;;;;;;;5000279;28;20209;-62
2023/08/14 08:56:02;;;;;;;6.35;2.10;;;;;;;;;;5002973;28;20215;-63
2023/08/14 08:58:29;;;;;;;4.50;1.92;;;;;;;;;;5004998;28;20323;-62
2023/08/14 09:00:57;;;;;;;7.50;2.08;;;;;;;;;;5008269;28;20211;-62
2023/08/14 09:03:24;;;;;;;2.42;1.90;;;;;;;;;;5004599;28;20204;-63
2023/08/14 09:05:52;;;;;;;5.22;2.30;;;;;;;;;;5009738;28;20210;-62
2023/08/14 09:08:20;;;;;;;4.50;2.20;;;;;;;;;;5002663;28;20201;-62
2023/08/14 09:10:48;;;;;;;7.22;2.28;;;;;;;;;;5000170;28;20202;-63
2023/08/14 09:13:15;;;;;;;3.78;2.00;;;;;;;;;;4998192;28;20213;-62
2023/08/14 09:15:43;;;;;;;4.45;2.08;;;;;;;;;;5002725;28;20224;-66
2023/08/14 09:18:11;;;;;;;3.40;2.10;;;;;;;;;;4996225;28;20225;-62
2023/08/14 09:20:38;;;;;;;5.47;2.30;;;;;;;;;;5003642;28;20262;-62
2023/08/14 09:23:06;;;;;;;3.15;2.05;;;;;;;;;;5002336;28;20206;-63
2023/08/14 09:25:33;;;;;;;4.75;2.38;;;;;;;;;;5002390;28;20201;-62
2023/08/14 09:28:01;;;;;;;5.78;2.42;;;;;;;;;;5001700;28;20197;-65
2023/08/14 09:30:29;;;;;;;4.53;2.50;;;;;;;;;;5003027;28;20212;-62
2023/08/14 09:32:56;;;;;;;5.90;2.30;;;;;;;;;;5002281;28;20207;-64
2023/08/14 09:35:23;;;;;;;7.53;3.45;;;;;;;;;;5005186;28;20209;-63
2023/08/14 09:37:50;;;;;;;6.85;2.80;;;;;;;;;;5009140;28;20235;-64
2023/08/14 09:40:18;;;;;;;6.70;3.28;;;;;;;;;;5003974;28;20215;-64
2023/08/14 09:42:45;;;;;;;9.55;3.67;;;;;;;;;;5005133;28;20208;-64
2023/08/14 09:45:15;;;;;;;6.72;3.17;;;;;;;;;;5003380;28;20208;-64
2023/08/14 09:47:43;;;;;;;5.95;2.50;;;;;;;;;;5008758;28;20211;-64
2023/08/14 09:50:10;;;;;;;7.43;2.63;;;;;;;;;;5007745;28;20205;-64
2023/08/14 09:52:37;;;;;;;5.65;2.40;;;;;;;;;;5004188;28;20236;-63
2023/08/14 09:55:05;;;;;;;8.13;2.97;;;;;;;;;;5005966;28;20209;-64
2023/08/14 09:57:33;;;;;;;7.22;3.10;;;;;;;;;;5005600;28;20213;-63
2023/08/14 10:00:00;;;;;;;6.03;3.25;;;;;;;;;;5004499;28;20228;-63
2023/08/14 10:02:29;;;;;;;5.85;3.00;;;;;;;;;;5008289;28;20205;-63
2023/08/14 10:04:57;;;;;;;7.35;3.20;;;;;;;;;;5000976;28;20208;-63
2023/08/14 10:07:25;;;;;;;10.77;3.25;;;;;;;;;;5013033;28;20201;-63
2023/08/14 10:10:02;;;;;;;6.55;3.33;;;;;;;;;;5005086;28;20201;-64
2023/08/14 10:12:32;;;;;;;5.13;3.15;;;;;;;;;;5001474;28;20244;-65
2023/08/14 10:15:03;;;;;;;4.43;2.65;;;;;;;;;;5003915;28;20208;-64
2023/08/14 10:17:38;;;;;;;3.50;2.60;;;;;;;;;;5004361;28;20232;-63
2023/08/14 10:20:07;;;;;;;5.22;2.50;;;;;;;;;;5009175;28;20208;-64
2023/08/14 10:22:35;;;;;;;5.10;2.90;;;;;;;;;;5011083;28;20228;-63
2023/08/14 10:25:04;;;;;;;4.68;2.70;;;;;;;;;;5006119;28;20228;-64
2023/08/14 10:27:32;;;;;;;5.70;2.70;;;;;;;;;;5014110;28;20207;-69
2023/08/14 10:30:14;;;;;;;5.88;3.00;;;;;;;;;;5008164;28;20280;-69
2023/08/14 10:32:44;;;;;;;5.38;2.85;;;;;;;;;;5006150;28;20208;-69
2023/08/14 10:35:11;;;;;;;5.60;2.72;;;;;;;;;;5009883;28;20304;-69
2023/08/14 10:37:42;;;;;;;5.35;2.75;;;;;;;;;;5002134;28;20210;-69
2023/08/14 10:40:17;;;;;;;3.75;2.53;;;;;;;;;;5004712;28;20204;-69
2023/08/14 10:42:47;;;;;;;4.35;2.67;;;;;;;;;;5001891;28;20327;-69
2023/08/14 10:45:18;;;;;;;4.18;2.78;;;;;;;;;;5007398;28;20259;-69
2023/08/14 10:47:46;;;;;;;7.15;3.10;;;;;;;;;;5004446;28;20201;-68
2023/08/14 10:50:15;;;;;;;5.97;2.92;;;;;;;;;;4996787;28;20212;-69
2023/08/14 10:52:46;;;;;;;4.65;2.88;;;;;;;;;;5000521;28;20216;-69
2023/08/14 10:55:17;;;;;;;7.00;2.70;;;;;;;;;;5003660;28;20300;-70
2023/08/14 10:57:44;;;;;;;4.00;2.28;;;;;;;;;;5003428;28;20220;-69
2023/08/14 11:00:20;;;;;;;4.78;2.60;;;;;;;;;;4998456;28;20248;-69
2023/08/14 11:02:52;;;;;;;3.80;2.60;;;;;;;;;;5005509;28;20204;-70
2023/08/14 11:05:19;;;;;;;6.70;3.42;;;;;;;;;;5008721;28;20201;-69
2023/08/14 11:07:59;;;;;;;5.60;3.15;;;;;;;;;;5001168;28;20204;-69
2023/08/14 11:10:27;;;;;;;5.30;3.45;;;;;;;;;;5001560;28;20209;-70
2023/08/14 11:12:55;;;;;;;5.35;2.90;;;;;;;;;;5004109;28;20204;-69
2023/08/14 11:15:22;;;;;;;4.32;2.85;;;;;;;;;;4998205;28;20322;-69
2023/08/14 11:17:49;;;;;;;4.05;2.53;;;;;;;;;;5008346;28;20228;-69
2023/08/14 11:20:19;;;;;;;3.88;2.55;;;;;;;;;;5001739;28;20205;-69
2023/08/14 11:22:47;;;;;;;3.50;2.80;;;;;;;;;;5004176;28;20241;-69
2023/08/14 11:25:15;;;;;;;4.43;2.85;;;;;;;;;;5008338;28;20200;-69
2023/08/14 11:27:42;;;;;;;7.55;3.42;;;;;;;;;;5003019;28;20216;-69
2023/08/14 11:30:10;;;;;;;5.07;2.90;;;;;;;;;;5006650;28;20222;-69
2023/08/14 11:32:38;;;;;;;4.00;2.63;;;;;;;;;;5003854;28;20208;-69
2023/08/14 11:35:07;;;;;;;5.30;2.88;;;;;;;;;;5004547;28;20250;-69
2023/08/14 11:37:38;;;;;;;4.55;2.67;;;;;;;;;;5004955;28;20216;-64
2023/08/14 11:40:07;;;;;;;4.78;2.85;;;;;;;;;;5002483;28;20212;-64
2023/08/14 11:42:37;;;;;;;4.57;2.67;;;;;;;;;;5003059;28;20208;-65
2023/08/14 11:45:07;;;;;;;5.47;2.83;;;;;;;;;;5006959;28;20204;-64
2023/08/14 11:47:35;;;;;;;6.38;3.10;;;;;;;;;;5001569;28;20210;-65
2023/08/14 11:50:03;;;;;;;5.13;2.65;;;;;;;;;;5009260;28;20743;-65
2023/08/14 11:52:34;;;;;;;3.05;2.42;;;;;;;;;;5004250;28;20200;-62
2023/08/14 11:55:05;;;;;;;2.80;2.38;;;;;;;;;;5010194;28;20205;-62
2023/08/14 11:57:34;;;;;;;5.40;2.55;;;;;;;;;;5001686;28;20244;-63
2023/08/14 12:00:05;;;;;;;5.70;2.83;;;;;;;;;;5000685;28;20242;-62
2023/08/14 12:02:32;;;;;;;4.88;3.00;;;;;;;;;;5002857;28;20209;-62
2023/08/14 12:05:02;;;;;;;4.28;2.90;;;;;;;;;;5007267;28;20295;-62
2023/08/14 12:07:29;;;;;;;4.70;2.85;;;;;;;;;;5002006;28;20292;-62
2023/08/14 12:09:56;;;;;;;4.45;2.42;;;;;;;;;;5003288;28;20491;-62
2023/08/14 12:12:26;;;;;;;3.55;2.50;;;;;;;;;;4997932;28;20205;-62
2023/08/14 12:14:53;;;;;;;3.25;2.50;;;;;;;;;;4997927;28;20204;-62
2023/08/14 12:17:20;;;;;;;3.97;2.65;;;;;;;;;;5006665;28;20232;-62
2023/08/14 12:19:51;;;;;;;5.30;2.97;;;;;;;;;;5006968;28;20233;-62
2023/08/14 12:22:20;;;;;;;4.63;2.70;;;;;;;;;;5004421;28;20283;-62
2023/08/14 12:24:48;;;;;;;3.17;2.80;;;;;;;;;;5001159;28;20295;-62
2023/08/14 12:27:16;;;;;;;4.68;3.22;;;;;;;;;;4999497;28;20201;-62
2023/08/14 12:29:44;;;;;;;5.68;3.00;;;;;;;;;;5003484;28;20205;-61
2023/08/14 12:32:12;;;;;;;4.13;3.20;;;;;;;;;;5001151;28;20205;-62
2023/08/14 12:34:39;;;;;;;5.90;3.20;;;;;;;;;;5003713;28;20205;-61
2023/08/14 12:37:07;;;;;;;4.75;3.20;;;;;;;;;;4998639;28;20207;-62
2023/08/14 12:39:34;;;;;;;4.07;3.08;;;;;;;;;;5001014;28;20225;-61
2023/08/14 12:42:02;;;;;;;4.43;3.78;;;;;;;;;;5004981;28;20295;-61
2023/08/14 12:44:29;;;;;;;5.20;3.30;;;;;;;;;;5012888;28;20224;-61
2023/08/14 12:46:58;;;;;;;4.65;3.10;;;;;;;;;;5021319;28;20196;-62
2023/08/14 12:49:26;;;;;;;4.30;3.13;;;;;;;;;;5024972;28;20213;-63
2023/08/14 12:51:53;;;;;;;5.70;3.13;;;;;;;;;;5031634;28;20200;-63
2023/08/14 12:54:21;;;;;;;5.20;3.15;;;;;;;;;;5023719;28;20258;-62
2023/08/14 12:56:49;;;;;;;3.83;2.67;;;;;;;;;;5019565;28;20201;-62
2023/08/14 12:59:16;;;;;;;7.18;3.22;;;;;;;;;;5024691;28;20248;-61
2023/08/14 13:01:43;;;;;;;4.28;2.95;;;;;;;;;;5020658;28;20205;-63
2023/08/14 13:04:12;;;;;;;5.00;2.95;;;;;;;;;;5024685;28;20209;-63
2023/08/14 13:06:40;;;;;;;6.25;2.85;;;;;;;;;;5019075;28;20200;-63
2023/08/14 13:09:08;;;;;;;3.45;2.80;;;;;;;;;;5027593;28;20208;-61
2023/08/14 13:11:35;;;;;;;4.70;3.13;;;;;;;;;;5019721;28;20204;-63
2023/08/14 13:14:02;;;;;;;3.92;2.95;;;;;;;;;;5023116;28;20208;-63
2023/08/14 13:16:30;;;;;;;4.68;2.80;;;;;;;;;;5017554;28;20212;-62
2023/08/14 13:18:57;;;;;;;4.25;2.80;;;;;;;;;;5022303;28;20302;-63
2023/08/14 13:21:26;;;;;;;4.53;3.00;;;;;;;;;;5019256;28;20243;-61
2023/08/14 13:23:53;;;;;;;3.25;2.95;;;;;;;;;;5020459;28;20209;-61
2023/08/14 13:26:20;;;;;;;4.88;2.88;;;;;;;;;;5027108;28;20200;-63
2023/08/14 13:28:47;;;;;;;3.38;3.00;;;;;;;;;;5020989;28;20296;-62
2023/08/14 13:31:14;;;;;;;4.25;3.03;;;;;;;;;;5020572;28;20208;-63
2023/08/14 13:33:42;;;;;;;3.70;3.10;;;;;;;;;;5018951;28;20546;-61
2023/08/14 13:36:09;;;;;;;5.05;2.78;;;;;;;;;;5021307;28;20200;-62
2023/08/14 13:38:38;;;;;;;4.47;3.08;;;;;;;;;;5017606;28;20227;-61
2023/08/14 13:41:05;;;;;;;3.70;2.67;;;;;;;;;;5023217;28;20627;-62
2023/08/14 13:43:32;;;;;;;5.07;3.20;;;;;;;;;;5021942;28;20218;-61
2023/08/14 13:45:59;;;;;;;3.42;3.13;;;;;;;;;;5022894;28;20200;-61
2023/08/14 13:48:26;;;;;;;4.45;2.83;;;;;;;;;;5021489;28;20295;-62
2023/08/14 13:50:54;;;;;;;3.20;2.88;;;;;;;;;;5021447;28;20221;-62
2023/08/14 13:53:21;;;;;;;4.88;2.78;;;;;;;;;;5022726;28;20211;-62
2023/08/14 13:55:50;;;;;;;3.38;2.80;;;;;;;;;;5027254;28;20299;-63
2023/08/14 13:58:17;;;;;;;4.95;2.65;;;;;;;;;;5016624;28;20208;-62
2023/08/14 14:00:44;;;;;;;3.00;2.70;;;;;;;;;;5020682;28;20236;-61
2023/08/14 14:03:11;;;;;;;3.03;2.20;;;;;;;;;;5023685;28;20302;-61
2023/08/14 14:05:38;;;;;;;2.42;2.22;;;;;;;;;;5022499;28;20212;-63
2023/08/14 14:08:06;;;;;;;2.53;2.33;;;;;;;;;;5019999;28;20204;-61
2023/08/14 14:10:33;;;;;;;2.75;2.30;;;;;;;;;;5022996;28;20292;-63
2023/08/14 14:13:01;;;;;;;3.60;2.42;;;;;;;;;;5017390;28;20208;-62
2023/08/14 14:15:29;;;;;;;2.97;2.75;;;;;;;;;;5021071;28;20238;-62
2023/08/14 14:17:56;;;;;;;4.10;2.58;;;;;;;;;;5021438;28;20326;-64
2023/08/14 14:20:23;;;;;;;6.63;2.47;;;;;;;;;;5026273;28;20224;-62
2023/08/14 14:22:50;;;;;;;3.30;2.38;;;;;;;;;;5022403;28;20212;-62
2023/08/14 14:25:18;;;;;;;2.33;1.95;;;;;;;;;;5020948;28;20209;-63
2023/08/14 14:27:45;;;;;;;2.15;1.90;;;;;;;;;;5029150;28;20217;-62
2023/08/14 14:30:14;;;;;;;3.28;2.08;;;;;;;;;;5023186;28;20201;-63
2023/08/14 14:32:41;;;;;;;2.58;1.95;;;;;;;;;;5016929;28;20215;-63
2023/08/14 14:35:08;;;;;;;3.25;2.08;;;;;;;;;;5024955;28;20218;-62
2023/08/14 14:37:35;;;;;;;4.47;2.50;;;;;;;;;;5022828;28;20209;-62
2023/08/14 14:40:04;;;;;;;2.72;2.20;;;;;;;;;;5021487;28;20217;-62
2023/08/14 14:42:31;;;;;;;3.15;2.35;;;;;;;;;;5023268;28;20216;-62
2023/08/14 14:44:58;;;;;;;2.78;2.30;;;;;;;;;;5023861;28;20214;-62
2023/08/14 14:47:27;;;;;;;5.25;2.10;;;;;;;;;;5021707;28;20207;-63